Time;durP1;ratioP1;P1;durP2;ratioP2;P2;SDS_P1;SDS_P2;PMS_P1;PMS_P2;Temp;Humidity;BMP_temperature;BMP_pressure;BME280_temperature;BME280_humidity;BME280_pressure;Samples;Min_cycle;Max_cycle;Signal;HPM_P1;HPM_P2
2020/12/31 00:01:26;;;;;;;14.10;7.00;;;;;;;10.59;71.76;100016.61;1724664;82;21213;-68
2020/12/31 00:03:54;;;;;;;12.73;6.60;;;;;;;10.55;71.85;100014.73;1728157;82;21275;-67
2020/12/31 00:06:22;;;;;;;15.23;7.60;;;;;;;10.51;72.04;100014.66;1731892;82;21180;-69
2020/12/31 00:08:50;;;;;;;16.17;6.97;;;;;;;10.46;72.15;100012.90;1730375;82;21379;-69
2020/12/31 00:11:17;;;;;;;9.80;5.75;;;;;;;10.43;72.26;100014.47;1724758;82;21172;-68
2020/12/31 00:13:44;;;;;;;14.93;6.40;;;;;;;10.43;72.32;100017.59;1728269;82;21185;-68
2020/12/31 00:16:12;;;;;;;15.68;5.95;;;;;;;10.49;72.07;100017.91;1728016;82;21635;-69
2020/12/31 00:18:40;;;;;;;14.65;6.90;;;;;;;10.50;72.12;100017.41;1723932;81;21145;-68
2020/12/31 00:21:08;;;;;;;16.70;7.53;;;;;;;10.52;72.09;100018.11;1731571;82;21394;-68
2020/12/31 00:23:35;;;;;;;11.35;6.50;;;;;;;10.51;72.14;100019.09;1728497;82;21331;-68
2020/12/31 00:26:03;;;;;;;11.63;6.85;;;;;;;10.49;72.24;100024.94;1733408;82;21639;-68
2020/12/31 00:28:30;;;;;;;18.62;8.80;;;;;;;10.45;72.28;100030.13;1734185;82;21164;-68
2020/12/31 00:30:58;;;;;;;14.13;6.60;;;;;;;10.44;72.28;100033.25;1725891;82;21168;-69
2020/12/31 00:33:25;;;;;;;11.38;6.67;;;;;;;10.47;72.12;100031.65;1730176;82;21361;-67
2020/12/31 00:35:55;;;;;;;14.00;6.90;;;;;;;10.52;71.86;100018.97;1736421;82;21200;-69
2020/12/31 00:38:23;;;;;;;14.30;8.58;;;;;;;10.57;71.78;100023.80;1736349;82;21163;-68
2020/12/31 00:40:52;;;;;;;19.73;7.60;;;;;;;10.56;71.61;100016.41;1740102;82;21117;-70
2020/12/31 00:43:22;;;;;;;14.43;7.55;;;;;;;10.54;71.54;100015.71;1732446;82;21178;-69
2020/12/31 00:45:49;;;;;;;14.68;7.08;;;;;;;10.49;71.63;100015.73;1736262;82;21283;-68
2020/12/31 00:48:16;;;;;;;14.30;6.42;;;;;;;10.40;71.66;100010.30;1726694;82;21590;-69
2020/12/31 00:50:44;;;;;;;11.08;5.55;;;;;;;10.33;71.90;100011.79;1733679;82;21113;-72
2020/12/31 00:53:13;;;;;;;14.98;6.37;;;;;;;10.31;71.90;100013.69;1726206;82;21219;-70
2020/12/31 00:55:42;;;;;;;13.93;6.90;;;;;;;10.34;71.84;100010.84;1728433;80;21180;-68
2020/12/31 00:58:12;;;;;;;14.60;7.65;;;;;;;10.35;71.93;100010.34;1738746;82;21370;-70
2020/12/31 01:00:39;;;;;;;15.93;8.30;;;;;;;10.31;72.02;100015.50;1736051;82;21175;-69
2020/12/31 01:03:08;;;;;;;17.37;7.70;;;;;;;10.28;72.18;100024.95;1738883;80;21144;-68
2020/12/31 01:05:36;;;;;;;19.27;7.58;;;;;;;10.21;72.27;100020.20;1740997;82;21136;-72
2020/12/31 01:08:04;;;;;;;17.70;7.45;;;;;;;10.22;72.40;100020.56;1736926;82;21113;-67
2020/12/31 01:10:31;;;;;;;11.85;6.92;;;;;;;10.30;72.37;100021.22;1745721;82;21397;-69
2020/12/31 01:12:59;;;;;;;14.90;8.48;;;;;;;10.39;72.22;100023.61;1743038;82;21431;-68
2020/12/31 01:15:27;;;;;;;15.20;8.60;;;;;;;10.43;72.18;100025.00;1745283;82;21664;-68
2020/12/31 01:17:54;;;;;;;14.78;9.33;;;;;;;10.43;72.22;100019.73;1747095;82;21160;-68
2020/12/31 01:20:22;;;;;;;16.10;7.55;;;;;;;10.42;72.34;100024.63;1735066;82;21634;-67
2020/12/31 01:22:52;;;;;;;20.68;7.87;;;;;;;10.43;72.41;100028.11;1747382;82;21205;-69
2020/12/31 01:25:19;;;;;;;17.85;7.42;;;;;;;10.47;72.36;100029.51;1741905;82;21644;-71
2020/12/31 01:27:47;;;;;;;19.80;6.92;;;;;;;10.58;72.13;100028.11;1734435;82;21169;-68
2020/12/31 01:30:14;;;;;;;17.73;7.50;;;;;;;10.65;71.97;100031.88;1741106;82;21116;-68
2020/12/31 01:32:42;;;;;;;18.32;8.43;;;;;;;10.69;71.92;100032.44;1740803;82;21133;-67
2020/12/31 01:35:09;;;;;;;16.15;8.48;;;;;;;10.66;71.93;100030.07;1744354;82;21203;-67
2020/12/31 01:50:19;;;;;;;19.37;8.93;;;;;;;12.04;69.02;100019.64;1842238;77;22429;-67
2020/12/31 01:52:46;;;;;;;16.93;8.43;;;;;;;12.14;68.36;100019.60;1813187;78;21194;-68
2020/12/31 01:55:16;;;;;;;22.62;8.60;;;;;;;12.02;68.27;100023.73;1821927;77;20994;-68
2020/12/31 01:57:43;;;;;;;17.30;8.30;;;;;;;11.86;68.34;100022.12;1826144;77;21160;-67
2020/12/31 02:00:11;;;;;;;14.07;7.90;;;;;;;11.67;68.67;100021.65;1802123;78;21749;-67
2020/12/31 02:02:49;;;;;;;19.25;9.08;;;;;;;11.53;69.03;100013.64;1808071;77;22896;-67
2020/12/31 02:05:20;;;;;;;20.40;8.65;;;;;;;11.33;69.27;100016.75;1783198;79;21129;-67
2020/12/31 02:07:47;;;;;;;17.57;8.95;;;;;;;11.24;69.57;100017.58;1783899;80;23571;-67
2020/12/31 02:10:15;;;;;;;17.98;7.70;;;;;;;11.22;69.57;100015.58;1742459;81;21480;-67
2020/12/31 02:12:42;;;;;;;20.05;8.38;;;;;;;11.17;69.86;100017.29;1727439;81;21174;-67
2020/12/31 02:15:16;;;;;;;19.70;9.13;;;;;;;11.15;70.10;100010.02;1751351;80;21594;-67
2020/12/31 02:17:44;;;;;;;23.45;10.38;;;;;;;11.11;70.24;100005.97;1754528;81;21611;-70
2020/12/31 02:20:12;;;;;;;17.48;8.85;;;;;;;11.01;70.50;100002.48;1712247;82;22043;-69
2020/12/31 02:22:40;;;;;;;24.18;9.43;;;;;;;10.91;70.85;99999.36;1711501;83;21534;-68
2020/12/31 02:25:08;;;;;;;17.57;8.30;;;;;;;10.85;71.08;99996.44;1704750;81;21021;-69
2020/12/31 02:27:36;;;;;;;14.83;7.50;;;;;;;10.87;71.23;99997.12;1710440;81;21156;-68
2020/12/31 02:30:03;;;;;;;19.30;7.40;;;;;;;10.92;71.15;99997.06;1713402;81;21212;-68
2020/12/31 02:32:31;;;;;;;17.55;9.03;;;;;;;10.96;71.09;99998.94;1700493;81;21169;-68
2020/12/31 02:34:59;;;;;;;24.02;9.70;;;;;;;10.95;71.20;99993.34;1708374;83;21185;-68
2020/12/31 02:37:27;;;;;;;18.62;9.80;;;;;;;10.94;71.36;99995.61;1697686;83;21116;-68
2020/12/31 02:39:54;;;;;;;18.40;10.10;;;;;;;10.93;71.38;99996.11;1716944;81;21187;-69
2020/12/31 02:42:22;;;;;;;16.90;8.83;;;;;;;10.89;71.49;99993.87;1694114;83;21179;-67
2020/12/31 02:44:49;;;;;;;16.10;8.43;;;;;;;10.81;71.60;99986.66;1698950;83;21346;-67
2020/12/31 02:47:17;;;;;;;16.75;8.25;;;;;;;10.80;71.53;99994.20;1739466;81;21125;-68
2020/12/31 02:49:45;;;;;;;16.00;8.20;;;;;;;10.82;71.21;99987.48;1741648;81;21189;-67
2020/12/31 02:52:12;;;;;;;22.13;9.70;;;;;;;10.81;71.17;99982.72;1714429;83;21674;-68
2020/12/31 02:54:40;;;;;;;19.57;8.90;;;;;;;10.77;71.27;99979.98;1736409;81;21116;-68
2020/12/31 02:57:08;;;;;;;21.17;9.23;;;;;;;10.71;71.36;99979.22;1715453;82;22153;-67
2020/12/31 02:59:35;;;;;;;18.52;9.15;;;;;;;10.63;71.58;99971.16;1709192;83;21235;-68
2020/12/31 03:02:03;;;;;;;18.02;9.23;;;;;;;10.59;71.84;99978.00;1713800;81;21691;-68
2020/12/31 03:04:30;;;;;;;17.82;8.70;;;;;;;10.56;72.00;99974.31;1718982;82;21209;-68
2020/12/31 03:06:58;;;;;;;16.27;8.88;;;;;;;10.58;72.12;99975.50;1776237;80;21145;-67
2020/12/31 03:09:25;;;;;;;13.80;7.75;;;;;;;10.66;71.97;99966.92;1763062;80;22981;-67
2020/12/31 03:11:54;;;;;;;20.25;9.30;;;;;;;10.70;71.76;99970.97;1759842;79;21228;-68
2020/12/31 03:14:21;;;;;;;19.70;9.93;;;;;;;10.71;71.81;99966.06;1752677;80;21510;-68
2020/12/31 03:16:49;;;;;;;19.07;9.98;;;;;;;10.72;71.89;99969.03;1758644;79;21662;-68
2020/12/31 03:19:16;;;;;;;18.00;9.65;;;;;;;10.70;71.84;99962.58;1755951;80;21535;-68
2020/12/31 03:21:43;;;;;;;19.98;9.93;;;;;;;10.66;72.00;99969.09;1689991;83;22169;-68
2020/12/31 03:24:13;;;;;;;18.02;9.70;;;;;;;10.62;72.13;99968.98;1760494;80;21580;-68
2020/12/31 03:26:40;;;;;;;17.25;8.98;;;;;;;10.65;72.11;99960.02;1771347;79;21224;-68
2020/12/31 03:29:07;;;;;;;18.60;8.85;;;;;;;10.72;72.02;99954.06;1697936;83;21220;-68
2020/12/31 03:31:35;;;;;;;15.48;8.98;;;;;;;10.78;72.02;99954.85;1774863;79;21163;-68
2020/12/31 03:34:02;;;;;;;18.80;9.58;;;;;;;10.80;72.09;99950.77;1765424;80;21211;-69
2020/12/31 03:36:30;;;;;;;18.23;10.70;;;;;;;10.79;72.16;99955.67;1754657;80;21176;-68
2020/12/31 03:38:58;;;;;;;18.87;10.18;;;;;;;10.77;72.19;99955.80;1757323;80;21199;-68
2020/12/31 03:41:25;;;;;;;18.98;9.93;;;;;;;10.76;72.25;99954.16;1766909;80;21197;-67
2020/12/31 03:43:53;;;;;;;17.52;9.58;;;;;;;10.75;72.21;99944.59;1762661;79;21156;-67
2020/12/31 03:46:20;;;;;;;15.55;8.20;;;;;;;10.76;72.12;99945.44;1775632;79;21382;-68
2020/12/31 03:48:48;;;;;;;18.73;8.70;;;;;;;10.76;71.99;99936.23;1710154;83;21186;-70
2020/12/31 03:51:15;;;;;;;16.20;8.45;;;;;;;10.68;71.98;99941.33;1769812;80;21599;-68
2020/12/31 03:53:42;;;;;;;22.62;8.60;;;;;;;10.62;72.27;99943.17;1753053;80;21192;-70
2020/12/31 03:56:10;;;;;;;16.45;8.80;;;;;;;10.56;72.35;99938.80;1688943;83;21206;-71
2020/12/31 03:58:37;;;;;;;16.30;9.43;;;;;;;10.52;72.37;99938.73;1765835;80;21385;-68
2020/12/31 04:01:05;;;;;;;15.03;7.87;;;;;;;10.44;72.42;99938.56;1765183;79;21161;-68
2020/12/31 04:03:32;;;;;;;16.48;7.58;;;;;;;10.39;72.46;99947.33;1727638;82;21164;-68
2020/12/31 04:06:00;;;;;;;16.55;8.98;;;;;;;10.36;72.50;99937.89;1708611;83;21188;-68
2020/12/31 04:08:28;;;;;;;16.52;8.43;;;;;;;10.37;72.11;99940.03;1724311;82;21141;-70
2020/12/31 04:10:58;;;;;;;15.88;8.18;;;;;;;10.35;72.10;99941.47;1697053;83;21228;-63
2020/12/31 04:13:26;;;;;;;16.42;8.28;;;;;;;10.32;72.23;99946.17;1715414;82;21227;-69
2020/12/31 04:15:54;;;;;;;17.50;7.92;;;;;;;10.28;72.25;99947.37;1709217;82;21204;-68
2020/12/31 04:18:22;;;;;;;14.20;7.08;;;;;;;10.20;72.25;99949.34;1694580;83;21165;-64
2020/12/31 04:20:49;;;;;;;12.95;6.50;;;;;;;10.21;72.18;99953.64;1769750;79;21129;-67
2020/12/31 04:23:16;;;;;;;19.50;6.62;;;;;;;10.29;71.96;99966.12;1758062;80;21188;-63
2020/12/31 04:25:44;;;;;;;16.42;7.62;;;;;;;10.33;71.79;99963.63;1759400;80;21192;-71
2020/12/31 04:28:13;;;;;;;15.85;8.15;;;;;;;10.35;71.62;99966.95;1697834;82;21230;-71
2020/12/31 04:30:40;;;;;;;18.82;7.60;;;;;;;10.30;71.63;99961.22;1770559;79;21599;-69
2020/12/31 04:33:08;;;;;;;15.68;6.87;;;;;;;10.25;71.68;99967.36;1709712;83;21186;-68
2020/12/31 04:35:35;;;;;;;15.15;7.55;;;;;;;10.20;71.65;99962.48;1769138;80;21200;-61
2020/12/31 04:38:03;;;;;;;12.00;6.70;;;;;;;10.15;71.58;99963.36;1760678;80;21163;-65
2020/12/31 04:40:31;;;;;;;11.57;5.42;;;;;;;10.11;71.60;99971.99;1692220;83;21740;-66
2020/12/31 04:42:59;;;;;;;12.45;5.83;;;;;;;10.17;71.53;99973.26;1750727;82;21249;-67
2020/12/31 04:45:28;;;;;;;15.90;7.03;;;;;;;10.22;71.40;99974.55;1760165;79;21157;-59
2020/12/31 04:48:19;;;;;;;16.23;7.47;;;;;;;10.28;71.28;99978.44;1781416;80;22280;-69
2020/12/31 04:50:58;;;;;;;11.05;7.05;;;;;;;10.31;71.25;99987.88;1834753;76;23285;-69
2020/12/31 04:53:27;;;;;;;15.98;6.37;;;;;;;10.22;71.30;99985.07;1798655;79;21555;-60
2020/12/31 04:55:54;;;;;;;14.63;7.45;;;;;;;10.18;71.37;99992.02;1803696;78;21355;-70
2020/12/31 04:58:23;;;;;;;11.97;6.58;;;;;;;10.15;71.45;99985.22;1794915;79;21140;-62
2020/12/31 05:00:50;;;;;;;12.07;5.80;;;;;;;10.17;71.44;99989.03;1800373;79;21548;-61
2020/12/31 05:03:18;;;;;;;14.70;6.53;;;;;;;10.26;71.26;99992.21;1799318;79;21161;-68
2020/12/31 05:05:46;;;;;;;14.35;7.45;;;;;;;10.31;71.03;99995.28;1809402;79;21092;-66
2020/12/31 05:08:16;;;;;;;11.15;6.62;;;;;;;10.31;71.05;100004.48;1777740;79;21206;-69
2020/12/31 05:10:53;;;;;;;19.32;7.80;;;;;;;10.30;71.13;100005.92;1777422;79;21159;-65
2020/12/31 05:13:22;;;;;;;14.63;7.37;;;;;;;10.28;71.20;100002.11;1793991;78;21105;-66
2020/12/31 05:15:50;;;;;;;13.83;7.72;;;;;;;10.25;71.30;100002.86;1797311;78;21179;-66
2020/12/31 05:18:26;;;;;;;13.95;6.75;;;;;;;10.19;71.39;100005.05;1806772;79;21582;-65
2020/12/31 05:20:55;;;;;;;14.07;6.62;;;;;;;10.22;71.44;100003.47;1788546;79;21164;-66
2020/12/31 05:23:26;;;;;;;21.95;7.47;;;;;;;10.31;71.30;100006.30;1795064;79;21171;-67
2020/12/31 05:26:14;;;;;;;14.53;7.40;;;;;;;10.41;71.21;100004.08;1794887;77;22824;-68
2020/12/31 05:28:42;;;;;;;13.65;7.40;;;;;;;10.45;71.09;100016.48;1722760;80;21199;-68
2020/12/31 05:31:11;;;;;;;18.37;8.53;;;;;;;10.46;71.11;100015.53;1769023;80;21352;-70
2020/12/31 05:33:40;;;;;;;16.32;7.45;;;;;;;10.47;71.14;100013.73;1764744;78;21242;-69
2020/12/31 05:36:23;;;;;;;14.25;7.20;;;;;;;10.44;71.18;100021.41;1762341;78;21693;-63
2020/12/31 05:39:06;;;;;;;14.20;7.30;;;;;;;10.43;71.37;100018.91;1717443;81;21306;-61
2020/12/31 05:41:35;;;;;;;14.70;7.47;;;;;;;10.51;71.31;100023.04;1709611;81;21178;-58
2020/12/31 05:44:06;;;;;;;15.98;6.37;;;;;;;10.60;71.07;100027.00;1704836;81;22052;-57
2020/12/31 05:46:36;;;;;;;13.70;7.78;;;;;;;10.67;71.00;100029.12;1713338;81;21503;-56
2020/12/31 05:49:09;;;;;;;20.32;9.18;;;;;;;10.67;70.98;100026.48;1715792;83;21196;-58
2020/12/31 05:51:38;;;;;;;16.70;8.48;;;;;;;10.65;71.11;100027.11;1735168;81;21239;-62
2020/12/31 05:54:16;;;;;;;17.12;8.50;;;;;;;10.63;71.07;100035.12;1722368;81;21716;-61
2020/12/31 05:56:44;;;;;;;19.42;8.90;;;;;;;10.59;71.19;100041.60;1688130;82;21823;-63
2020/12/31 05:59:25;;;;;;;15.98;7.62;;;;;;;10.54;71.25;100039.39;1709486;81;21283;-64
2020/12/31 06:02:01;;;;;;;16.52;7.75;;;;;;;10.55;71.26;100033.63;1710365;82;21605;-63
2020/12/31 06:04:46;;;;;;;17.23;7.97;;;;;;;10.62;71.08;100037.89;1719409;82;21507;-59
2020/12/31 06:07:32;;;;;;;14.25;8.13;;;;;;;10.66;71.11;100034.02;1720707;81;21265;-59
2020/12/31 06:10:07;;;;;;;21.55;9.55;;;;;;;10.68;71.08;100034.25;1705022;81;21659;-58
2020/12/31 06:12:49;;;;;;;20.27;8.90;;;;;;;10.68;71.04;100033.43;1720955;81;21473;-58
2020/12/31 06:15:28;;;;;;;19.32;9.03;;;;;;;10.63;71.20;100036.94;1713816;82;21762;-57
2020/12/31 06:17:56;;;;;;;16.97;9.40;;;;;;;10.56;71.20;100041.40;1718088;82;21201;-58
2020/12/31 06:20:26;;;;;;;17.32;8.58;;;;;;;10.49;71.39;100042.89;1717647;82;21562;-58
2020/12/31 06:23:07;;;;;;;20.82;8.60;;;;;;;10.49;71.40;100045.53;1710731;83;22384;-57
2020/12/31 06:25:48;;;;;;;19.23;8.75;;;;;;;10.57;71.27;100040.45;1705045;82;21330;-57
2020/12/31 06:28:20;;;;;;;22.55;8.65;;;;;;;10.65;71.16;100037.14;1759856;80;21197;-58
2020/12/31 06:30:51;;;;;;;18.15;10.63;;;;;;;10.70;71.06;100032.80;1759377;80;21195;-58
2020/12/31 06:33:46;;;;;;;19.35;9.45;;;;;;;10.70;71.06;100032.80;1692254;82;21217;-59
2020/12/31 06:36:15;;;;;;;20.32;10.80;;;;;;;10.69;71.03;100029.35;1757127;80;21935;-57
2020/12/31 06:38:48;;;;;;;16.60;9.60;;;;;;;10.68;71.06;100023.73;1693135;82;21219;-58
2020/12/31 06:41:41;;;;;;;27.80;10.60;;;;;;;10.69;71.00;100040.34;1759900;79;21232;-57
2020/12/31 06:44:13;;;;;;;17.62;8.48;;;;;;;10.70;70.89;100042.02;1755799;80;21854;-59
2020/12/31 06:46:44;;;;;;;17.73;9.03;;;;;;;10.75;70.64;100052.48;1760580;79;21161;-60
2020/12/31 06:49:12;;;;;;;19.05;10.53;;;;;;;10.80;70.57;100056.54;1760942;79;22336;-60
2020/12/31 06:51:39;;;;;;;22.05;12.30;;;;;;;10.81;70.55;100061.67;1759820;79;21535;-63
2020/12/31 06:54:08;;;;;;;38.33;23.10;;;;;;;10.80;70.60;100058.67;1757313;79;21165;-63
2020/12/31 06:56:49;;;;;;;27.67;14.00;;;;;;;10.77;70.68;100057.13;1755474;79;22445;-64
2020/12/31 06:59:35;;;;;;;14.23;8.85;;;;;;;10.71;70.66;100056.36;1757261;79;21486;-62
2020/12/31 07:02:14;;;;;;;21.10;8.88;;;;;;;10.63;70.70;100050.92;1754562;79;22105;-63
2020/12/31 07:04:42;;;;;;;19.50;8.73;;;;;;;10.54;70.86;100052.55;1736232;79;21173;-62
2020/12/31 07:07:26;;;;;;;17.37;8.10;;;;;;;10.50;70.91;100053.75;1753344;79;21575;-61
2020/12/31 07:09:59;;;;;;;18.57;8.53;;;;;;;10.53;70.85;100052.18;1758071;80;21325;-62
2020/12/31 07:12:40;;;;;;;25.25;9.48;;;;;;;10.58;70.89;100051.80;1753102;79;21670;-60
2020/12/31 07:15:08;;;;;;;20.05;9.85;;;;;;;10.63;70.90;100062.76;1747657;79;22846;-59
2020/12/31 07:17:44;;;;;;;19.67;10.13;;;;;;;10.65;70.89;100058.69;1751302;79;21232;-60
2020/12/31 07:20:18;;;;;;;21.73;9.03;;;;;;;10.66;70.93;100063.81;1752763;80;21600;-59
2020/12/31 07:22:47;;;;;;;21.60;9.95;;;;;;;10.65;71.01;100062.62;1766076;80;21197;-60
2020/12/31 07:25:17;;;;;;;17.87;8.48;;;;;;;10.62;71.09;100062.89;1755176;80;21603;-60
2020/12/31 07:27:47;;;;;;;20.68;8.35;;;;;;;10.63;71.22;100064.08;1764807;79;21279;-60
2020/12/31 07:30:19;;;;;;;15.28;8.13;;;;;;;10.68;71.21;100064.52;1753538;79;21231;-60
2020/12/31 07:33:09;;;;;;;18.80;9.90;;;;;;;10.64;71.29;100068.84;1764261;80;21148;-60
2020/12/31 07:35:42;;;;;;;23.55;9.35;;;;;;;10.60;71.53;100069.59;1699413;83;21249;-61
2020/12/31 07:38:15;;;;;;;19.75;10.03;;;;;;;10.55;71.81;100070.47;1758744;80;21595;-61
2020/12/31 07:40:53;;;;;;;23.42;9.58;;;;;;;10.48;72.00;100067.52;1758390;80;22710;-61
2020/12/31 07:43:27;;;;;;;18.45;8.13;;;;;;;10.37;72.25;100072.39;1756492;80;21570;-60
2020/12/31 07:45:56;;;;;;;16.80;8.08;;;;;;;10.33;72.43;100070.14;1757147;79;21205;-60
2020/12/31 07:48:25;;;;;;;16.87;8.43;;;;;;;10.36;72.43;100077.77;1701070;82;21224;-60
2020/12/31 07:50:59;;;;;;;28.02;8.60;;;;;;;10.39;72.42;100081.47;1761215;79;21721;-61
2020/12/31 07:53:26;;;;;;;17.82;8.53;;;;;;;10.44;72.44;100085.86;1755857;79;21371;-60
2020/12/31 07:55:54;;;;;;;16.50;9.38;;;;;;;10.44;72.46;100090.27;1760714;79;21805;-60
2020/12/31 07:58:24;;;;;;;19.17;9.70;;;;;;;10.43;72.50;100095.19;1765574;79;21546;-60
2020/12/31 08:01:05;;;;;;;32.20;11.33;;;;;;;10.38;72.60;100095.08;1757088;80;21204;-60
2020/12/31 08:03:33;;;;;;;14.03;7.75;;;;;;;10.35;72.69;100090.56;1763072;80;21203;-59
2020/12/31 08:06:07;;;;;;;19.40;10.08;;;;;;;10.37;72.71;100088.63;1757100;80;22060;-58
2020/12/31 08:08:34;;;;;;;18.62;8.68;;;;;;;10.42;72.63;100090.39;1759207;80;21974;-61
2020/12/31 08:11:09;;;;;;;24.72;10.82;;;;;;;10.46;72.62;100094.45;1756482;80;21164;-60
2020/12/31 08:13:37;;;;;;;20.25;10.15;;;;;;;10.46;72.66;100087.87;1760304;80;21630;-62
2020/12/31 08:16:06;;;;;;;17.15;9.50;;;;;;;10.45;72.79;100092.77;1759855;79;21128;-61
2020/12/31 08:18:34;;;;;;;20.85;11.33;;;;;;;10.45;72.90;100095.40;1759413;80;23536;-62
2020/12/31 08:21:04;;;;;;;24.57;10.58;;;;;;;10.48;72.83;100092.52;1760662;79;21532;-61
2020/12/31 08:23:41;;;;;;;16.23;9.00;;;;;;;10.47;72.83;100094.78;1768131;80;21207;-62
2020/12/31 08:26:09;;;;;;;19.20;9.63;;;;;;;10.56;72.72;100091.39;1757832;79;21251;-62
2020/12/31 08:28:37;;;;;;;17.70;9.13;;;;;;;10.69;72.45;100092.97;1755904;80;21216;-61
2020/12/31 08:31:12;;;;;;;19.77;9.90;;;;;;;10.80;72.25;100100.79;1684896;84;21296;-61
2020/12/31 08:33:40;;;;;;;23.73;10.55;;;;;;;10.86;72.08;100097.64;1755091;80;21259;-66
2020/12/31 08:36:09;;;;;;;22.93;9.85;;;;;;;10.90;72.09;100095.08;1715937;79;21777;-65
2020/12/31 08:38:39;;;;;;;18.92;10.72;;;;;;;10.93;72.10;100096.14;1748390;79;22189;-63
2020/12/31 08:41:08;;;;;;;16.32;9.00;;;;;;;10.94;72.01;100100.45;1756979;79;21209;-62
2020/12/31 08:43:38;;;;;;;17.00;8.93;;;;;;;10.93;71.94;100091.37;1747007;80;22372;-62
2020/12/31 08:46:09;;;;;;;21.27;9.35;;;;;;;10.95;71.85;100090.75;1757637;80;21268;-63
2020/12/31 08:48:37;;;;;;;19.12;10.70;;;;;;;11.05;71.59;100093.42;1736884;80;21213;-64
2020/12/31 08:51:14;;;;;;;18.32;10.60;;;;;;;11.06;71.46;100087.17;1754598;79;21236;-64
2020/12/31 08:53:58;;;;;;;18.85;9.78;;;;;;;11.08;71.50;100088.72;1754439;79;21117;-63
2020/12/31 08:56:29;;;;;;;21.87;10.80;;;;;;;11.07;71.54;100091.48;1756895;80;22254;-64
2020/12/31 08:59:15;;;;;;;19.75;9.70;;;;;;;11.05;71.39;100093.42;1754231;80;21125;-64
2020/12/31 09:01:44;;;;;;;18.82;10.63;;;;;;;11.01;71.25;100088.05;1749571;80;21164;-63
2020/12/31 09:04:17;;;;;;;18.85;10.63;;;;;;;10.95;71.08;100090.75;1755362;79;21204;-65
2020/12/31 09:06:52;;;;;;;28.15;10.30;;;;;;;10.88;70.97;100093.07;1758011;79;21188;-64
2020/12/31 09:09:30;;;;;;;13.95;7.70;;;;;;;10.86;70.97;100093.69;1753469;79;21212;-64
2020/12/31 09:12:08;;;;;;;13.78;7.37;;;;;;;10.89;70.56;100097.84;1758601;79;21173;-63
2020/12/31 09:14:37;;;;;;;14.00;7.10;;;;;;;10.91;70.09;100094.59;1755520;79;21227;-63
2020/12/31 09:17:30;;;;;;;18.32;7.67;;;;;;;10.91;69.88;100092.81;1760301;79;21191;-64
2020/12/31 09:20:01;;;;;;;13.60;7.47;;;;;;;10.82;69.83;100098.84;1748279;80;21599;-63
2020/12/31 09:22:29;;;;;;;18.52;8.03;;;;;;;10.82;69.83;100098.84;1753158;80;22788;-62
2020/12/31 09:24:57;;;;;;;13.55;7.00;;;;;;;10.74;69.66;100093.41;1757669;80;21201;-63
2020/12/31 09:27:26;;;;;;;13.62;6.75;;;;;;;10.65;69.38;100085.82;1760331;80;21192;-62
2020/12/31 09:30:00;;;;;;;11.18;6.35;;;;;;;10.54;69.45;100085.42;1761956;79;21199;-62
2020/12/31 09:32:28;;;;;;;12.65;7.30;;;;;;;10.49;69.43;100086.30;1767079;80;21215;-62
2020/12/31 09:34:58;;;;;;;15.10;6.65;;;;;;;10.50;69.43;100088.44;1768090;80;21589;-64
2020/12/31 09:37:26;;;;;;;14.73;6.90;;;;;;;10.50;69.51;100080.55;1707316;83;21206;-63
2020/12/31 09:39:54;;;;;;;17.77;7.08;;;;;;;10.48;69.74;100081.98;1697940;83;21775;-63
2020/12/31 09:42:22;;;;;;;13.48;6.78;;;;;;;10.45;69.68;100087.50;1699945;83;21229;-64
2020/12/31 09:44:51;;;;;;;14.30;7.83;;;;;;;10.41;69.75;100080.84;1726350;82;21473;-64
2020/12/31 09:47:19;;;;;;;22.17;10.00;;;;;;;10.37;70.04;100078.96;1727691;82;21502;-65
2020/12/31 09:49:46;;;;;;;21.37;9.43;;;;;;;10.33;70.45;100076.71;1723443;82;21527;-65
2020/12/31 09:52:14;;;;;;;15.85;8.30;;;;;;;10.28;70.86;100085.44;1697380;83;21242;-65
2020/12/31 09:54:41;;;;;;;16.77;8.13;;;;;;;10.27;71.04;100074.55;1676674;84;21315;-64
2020/12/31 09:57:09;;;;;;;17.52;8.28;;;;;;;10.34;71.09;100069.16;1705517;82;21652;-62
2020/12/31 09:59:36;;;;;;;17.95;9.68;;;;;;;10.40;71.21;100074.73;1691473;83;21218;-64
2020/12/31 10:02:05;;;;;;;15.90;9.23;;;;;;;10.44;71.35;100074.48;1711846;83;21649;-63
2020/12/31 10:04:33;;;;;;;22.30;9.50;;;;;;;10.37;71.66;100065.81;1705345;83;21165;-61
2020/12/31 10:07:01;;;;;;;22.93;11.45;;;;;;;10.32;71.92;100069.77;1696338;82;21233;-59
2020/12/31 10:09:29;;;;;;;19.90;9.70;;;;;;;10.23;72.25;100065.60;1713087;83;21779;-59
2020/12/31 10:11:56;;;;;;;18.50;9.10;;;;;;;10.17;72.53;100071.39;1691516;83;23604;-59
2020/12/31 10:14:23;;;;;;;22.85;9.75;;;;;;;10.19;72.71;100064.20;1708443;83;21242;-59
2020/12/31 10:16:52;;;;;;;17.92;9.15;;;;;;;10.28;72.61;100064.40;1703288;83;21625;-59
2020/12/31 10:19:19;;;;;;;24.12;10.25;;;;;;;10.33;72.66;100074.91;1719563;82;21509;-58
2020/12/31 10:21:47;;;;;;;21.00;10.40;;;;;;;10.37;72.65;100068.91;1701853;83;21181;-58
2020/12/31 10:24:15;;;;;;;17.65;9.55;;;;;;;10.34;72.66;100067.37;1711729;82;22674;-59
2020/12/31 10:26:44;;;;;;;20.25;10.05;;;;;;;10.32;72.78;100053.99;1727496;82;22328;-58
2020/12/31 10:29:13;;;;;;;19.52;9.25;;;;;;;10.27;72.81;100054.37;1766266;80;21122;-60
2020/12/31 10:31:42;;;;;;;17.17;9.13;;;;;;;10.20;72.94;100044.85;1759712;80;21351;-63
2020/12/31 10:34:10;;;;;;;15.40;8.95;;;;;;;10.25;72.95;100039.18;1764696;80;21148;-59
2020/12/31 10:36:38;;;;;;;14.20;7.50;;;;;;;10.35;72.73;100035.33;1756941;79;23607;-59
2020/12/31 10:39:06;;;;;;;18.42;9.15;;;;;;;10.43;72.50;100032.06;1763603;80;21160;-60
2020/12/31 10:41:34;;;;;;;17.15;8.80;;;;;;;10.43;72.29;100023.68;1763818;80;21133;-60
2020/12/31 10:44:01;;;;;;;20.27;10.28;;;;;;;10.40;72.20;100030.52;1753006;79;21559;-59
2020/12/31 10:46:30;;;;;;;16.57;8.80;;;;;;;10.35;72.28;100028.27;1763388;79;21164;-60
2020/12/31 10:48:59;;;;;;;18.57;8.95;;;;;;;10.29;72.33;100026.60;1761126;79;23091;-60
2020/12/31 10:51:27;;;;;;;16.45;8.70;;;;;;;10.21;72.50;100021.52;1752075;80;21219;-59
2020/12/31 10:53:54;;;;;;;19.80;9.38;;;;;;;10.20;72.57;100022.95;1755168;80;22250;-61
2020/12/31 10:56:21;;;;;;;18.12;8.65;;;;;;;10.24;72.55;100023.06;1765767;80;21212;-59
2020/12/31 10:58:49;;;;;;;18.05;10.00;;;;;;;10.29;72.56;100026.60;1756199;79;22474;-60
2020/12/31 11:01:16;;;;;;;20.57;10.05;;;;;;;10.34;72.56;100029.70;1757546;80;21458;-60
2020/12/31 11:03:44;;;;;;;17.55;8.83;;;;;;;10.31;72.58;100025.52;1763063;79;21232;-61
2020/12/31 11:06:26;;;;;;;16.07;10.43;;;;;;;10.23;72.71;100027.47;1765670;80;21196;-60
2020/12/31 11:08:55;;;;;;;17.85;10.08;;;;;;;10.18;72.83;100022.27;1762192;79;21207;-60
2020/12/31 11:11:30;;;;;;;17.02;8.28;;;;;;;10.10;72.99;100019.44;1761749;80;21208;-61
2020/12/31 11:13:57;;;;;;;16.25;8.35;;;;;;;10.05;73.09;100022.45;1767516;80;21324;-60
2020/12/31 11:16:25;;;;;;;17.32;9.33;;;;;;;10.11;73.00;100021.12;1764071;80;21192;-60
2020/12/31 11:18:52;;;;;;;15.83;9.50;;;;;;;10.14;72.97;100019.55;1761656;80;21234;-60
2020/12/31 11:21:20;;;;;;;16.65;9.53;;;;;;;10.18;72.92;100018.32;1762113;80;21244;-62
2020/12/31 11:23:48;;;;;;;16.25;9.05;;;;;;;10.16;72.85;100014.50;1757387;79;21188;-62
2020/12/31 11:26:21;;;;;;;15.63;9.35;;;;;;;10.12;72.96;100014.42;1756769;79;22882;-61
2020/12/31 11:28:49;;;;;;;18.45;9.60;;;;;;;10.11;73.00;100015.86;1761685;80;21596;-62
2020/12/31 11:31:27;;;;;;;18.45;8.78;;;;;;;10.06;73.06;100008.35;1765687;80;21591;-61
2020/12/31 11:33:56;;;;;;;13.00;8.33;;;;;;;10.10;73.03;100020.75;1761589;80;21227;-61
2020/12/31 11:36:24;;;;;;;13.90;6.92;;;;;;;10.19;72.88;100012.94;1763155;80;21465;-60
2020/12/31 11:38:54;;;;;;;14.50;7.97;;;;;;;10.29;72.68;100001.62;1761673;79;22456;-60
2020/12/31 11:41:23;;;;;;;15.35;8.65;;;;;;;10.32;72.54;100004.03;1762220;80;21244;-61
2020/12/31 11:43:50;;;;;;;14.03;8.40;;;;;;;10.28;72.36;100006.55;1762135;80;21466;-60